• Join FlightAware (Why Join?)
  • Login
  • US Flag 
04:38PM EDT


 

Airport Tracker/Info


-or-


 

Live Flight TrackerFlight Track Log ✈ ASQ6115 ✈ 04-Jun-2013 ✈ KICT - KORD

Flight Track Log - Related Links

Times and Time Zones

All times are in EDT time to prevent confusion due to time zone crossing. See the ASQ6115 flight status page for this flight to view local times or setup timezone preferences in your user account.

Time Position Orientation Groundspeed Altitude Reporting Facility
EDT Latitude Longitude Course Direction KTS MPH feet Rate Location/Type
08:35AM 37.6306 -97.4347 North 149 171 2,200  Level Kansas City Center
08:36AM 37.6142 -97.4819 246° West 191 220 4,200 1,740 Climbing Kansas City Center
08:37AM 37.6706 -97.4894 354° North 250 288 5,500 2,160 Climbing Kansas City Center
08:38AM 37.9776 -97.3882 North  Level FlightAware Approximate
08:38AM 37.7453 -97.4714 11° North 272 313 8,300  Level Kansas City Center
08:39AM 38.0638 -97.3774 North  Level FlightAware Approximate
08:39AM 37.8247 -97.4536 10° North 293 337 10,300  Level Kansas City Center
08:40AM 38.1500 -97.3667 North  Level FlightAware Approximate
08:40AM 37.9133 -97.4314 11° North 325 374 11,700  Level Kansas City Center
08:41AM 38.0083 -97.4089 11° North 347 399 13,300 1,560 Climbing Kansas City Center
08:42AM 38.1069 -97.3847 11° North 360 414 15,000 2,160 Climbing Kansas City Center
08:43AM 38.2114 -97.3194 26° Northeast 353 406 17,800 2,340 Climbing Kansas City Center
08:44AM 38.2611 -97.2147 59° Northeast 345 397 19,800 1,680 Climbing Kansas City Center
08:45AM 38.3094 -97.1033 61° Northeast 357 411 21,300 1,320 Climbing Kansas City Center
08:46AM 38.3594 -96.9867 61° Northeast 372 428 22,600 1,320 Climbing Kansas City Center
08:47AM 38.4100 -96.8669 62° Northeast 382 440 24,100 1,560 Climbing Kansas City Center
08:48AM 38.4656 -96.7375 61° Northeast 381 438 25,900 1,560 Climbing Kansas City Center
08:49AM 38.5139 -96.6233 62° Northeast 382 440 27,400 1,620 Climbing Kansas City Center
08:50AM 38.5703 -96.4881 62° Northeast 385 443 29,300 1,500 Climbing Kansas City Center
08:51AM 38.6189 -96.3719 62° Northeast 387 445 30,500 1,140 Climbing Kansas City Center
08:52AM 38.6686 -96.2542 62° Northeast 392 451 31,700 1,200 Climbing Kansas City Center
08:53AM 38.7275 -96.1117 62° Northeast 404 465 33,100 1,260 Climbing Kansas City Center
08:54AM 38.7778 -95.9892 62° Northeast 405 466 34,400 900 Climbing Kansas City Center
08:55AM 38.8375 -95.8450 62° Northeast 410 472 35,000 240 Climbing Kansas City Center
08:56AM 38.8925 -95.7106 62° Northeast 442 509 35,000  Level Kansas City Center
08:57AM 38.9614 -95.5439 62° Northeast 475 547 35,000  Level Kansas City Center
08:58AM 39.0261 -95.3817 63° Northeast 494 568 35,000  Level Kansas City Center
08:59AM 39.0919 -95.2186 62° Northeast 513 590 35,000  Level Kansas City Center
09:00AM 39.1542 -95.0614 63° Northeast 513 590 35,000  Level Kansas City Center
09:01AM 39.2244 -94.8883 62° Northeast 495 570 35,000  Level Kansas City Center
09:02AM 39.2850 -94.7378 63° Northeast 496 571 35,000  Level Kansas City Center
09:03AM 39.3464 -94.5897 62° Northeast 495 570 35,000  Level Kansas City Center
09:04AM 39.4169 -94.4164 62° Northeast 487 560 35,000  Level Kansas City Center
09:05AM 39.4761 -94.2700 62° Northeast 482 555 35,000  Level Kansas City Center
09:06AM 39.5450 -94.0989 62° Northeast 478 550 35,000  Level Kansas City Center
09:07AM 39.6036 -93.9533 62° Northeast 476 548 35,000  Level Kansas City Center
09:08AM 39.6728 -93.7800 63° Northeast 486 559 35,000  Level Kansas City Center
09:09AM 39.7350 -93.6197 63° Northeast 495 570 35,000  Level Kansas City Center
09:10AM 39.7964 -93.4611 63° Northeast 496 571 35,000  Level Kansas City Center
09:11AM 39.8581 -93.3083 62° Northeast 487 560 35,000  Level Kansas City Center
09:12AM 39.9164 -93.1581 63° Northeast 472 543 35,000  Level Kansas City Center
09:14AM 39.9756 -93.0061 63° Northeast 475 547 35,000  Level Kansas City Center
09:15AM 40.0350 -92.8497 64° Northeast 483 556 35,000  Level Kansas City Center
09:16AM 40.1058 -92.6625 64° Northeast 472 543 35,000  Level Kansas City Center
09:17AM 40.1606 -92.5128 64° Northeast 477 549 35,000  Level Kansas City Center
09:18AM 40.2189 -92.3625 63° Northeast 488 562 35,000  Level Kansas City Center
09:19AM 40.2744 -92.2050 65° Northeast 493 567 35,000  Level Kansas City Center
09:20AM 40.3442 -92.0100 65° Northeast 496 571 35,000  Level Kansas City Center
09:21AM 40.4022 -91.8456 65° Northeast 499 574 35,000 -60 Level Kansas City Center
09:22AM 40.4597 -91.6817 65° Northeast 501 577 34,900 -780 Descending Kansas City Center
09:22AM 40.4817 -91.6161 66° East 498 573 34,000 -1,380 Descending Chicago Center
09:23AM 40.5350 -91.4586 66° East 480 552 33,000 -600 Descending Chicago Center
09:24AM 40.5647 -91.3703 66° East 463 533 33,000  Level Kansas City Center
09:25AM 40.6167 -91.2192 66° East 442 509 33,000  Level Kansas City Center
09:25AM 40.6375 -91.1586 66° East 444 511 33,000  Level Chicago Center
09:26AM 40.6889 -91.0097 65° Northeast 446 513 33,000  Level Chicago Center
09:27AM 40.7392 -90.8606 66° East 445 512 33,000  Level Chicago Center
09:28AM 40.7456 -90.6694 87° East 447 514 33,000  Level Chicago Center
09:29AM 40.7247 -90.5044 99° East 456 525 33,000 -180 Level Chicago Center
09:30AM 40.7044 -90.3447 99° East 446 513 32,700 -720 Descending Chicago Center
09:31AM 40.7233 -90.1839 81° East 438 504 31,600 -1,140 Descending Chicago Center
09:32AM 40.8014 -90.0661 49° Northeast 430 495 30,400 -1,140 Descending Chicago Center
09:33AM 40.8800 -89.9553 47° Northeast 419 482 29,300 -1,320 Descending Chicago Center
09:34AM 40.9811 -89.8281 44° Northeast 413 475 27,700 -1,380 Descending Chicago Center
09:36AM 41.0531 -89.7314 45° Northeast 430 495 26,500 -1,500 Descending Chicago Center
09:37AM 41.1603 -89.5833 46° Northeast 458 527 24,600 -2,340 Descending Chicago Center
09:38AM 41.2219 -89.4372 61° Northeast 452 520 21,700 -2,820 Descending Chicago Center
09:39AM 41.2792 -89.2967 62° Northeast 436 502 18,800 -2,700 Descending Chicago Center
09:40AM 41.3375 -89.1447 63° Northeast 414 476 16,200 -2,340 Descending Chicago Center
09:41AM 41.3914 -89.0131 61° Northeast 406 467 14,000 -2,040 Descending Chicago Center
09:42AM 41.4389 -88.8897 63° Northeast 380 437 12,000 -1,500 Descending Chicago Center
09:43AM 41.4881 -88.7686 62° Northeast 373 429 11,000 -540 Descending Chicago Center
09:44AM 41.5317 -88.6572 62° Northeast 344 396 11,000 -240 Level Chicago Center
09:45AM 41.5758 -88.5442 62° Northeast 343 395 10,600 -1,080 Descending Chicago Center
09:46AM 41.6286 -88.4292 58° Northeast 304 350 8,800 -1,620 Descending Chicago Center
09:47AM 41.6775 -88.3481 51° Northeast 284 327 7,300 -900 Descending Chicago Center
09:48AM 41.7503 -88.3325 North 280 322 7,000 -240 Descending Chicago Center
09:49AM 41.8286 -88.3361 358° North 281 323 6,800 -720 Descending Chicago Center
09:50AM 41.9028 -88.3569 348° North 278 320 5,500 -1,380 Descending Chicago Center
09:51AM 41.9531 -88.3175 30° Northeast 243 280 4,000 -780 Descending Chicago Center
09:52AM 41.9678 -88.2336 77° East 216 249 4,000  Level Chicago Center
09:53AM 41.9675 -88.1653 90° East 193 222 4,000 -480 Level Chicago Center
09:54AM 41.9667 -88.1000 91° East 180 207 3,200 -960 Descending Chicago TRACON